^^
Grace C. Lehan Memorial Weather Station Historical Data
Daily Summary for February 12, 2021 Units:  Metric    English   Both
Daily Weekly Monthly Yearly
  High: Low: Average:
Temperature: 29.1 °C 15.8 °C 22.7 °C
Dew Point: 21.3 °C 14.4 °C 18.4 °C
Humidity: 92% 62% 78%
Wind Speed: 4.5km/h 0km/h 1km/h
Wind Gust: 22.5km/h - -
Wind- - WSW
Pressure: 1018.5 hPa 1013.1 hPa -
Precipitation: 0 mm    
 
 
Tabular Data for February 12, 2021
Time Temperature Dew Point Pressure Wind Wind Speed Wind Gust Humidity Rainfall Rate (Hourly) solar
00:09 17.6 °C 15.9 °C 1018.5 hPa Calm     90% 0 mm 0 W/m2
00:14 17.5 °C 15.8 °C 1018.5 hPa Calm     90% 0 mm 0 W/m2
00:19 17.4 °C 15.9 °C 1018.5 hPa Calm     90.3% 0 mm 0 W/m2
00:24 17.4 °C 15.9 °C 1018.5 hPa Calm     91% 0 mm 0 W/m2
00:29 17.4 °C 15.9 °C 1018.5 hPa Calm     91% 0 mm 0 W/m2
00:34 17.3 °C 15.8 °C 1018.5 hPa Calm     91% 0 mm 0 W/m2
00:39 17.2 °C 15.8 °C 1018.5 hPa Calm     91% 0 mm 0 W/m2
00:44 17.2 °C 15.7 °C 1018.5 hPa Calm     91% 0 mm 0 W/m2
00:49 17.1 °C 15.6 °C 1018.5 hPa Calm     91% 0 mm 0 W/m2
00:53 17 °C 15.6 °C 1018.5 hPa Calm     91% 0 mm 0 W/m2
00:59 16.9 °C 15.4 °C 1018.5 hPa Calm     91% 0 mm 0 W/m2
01:04 16.8 °C 15.4 °C 1018.5 hPa Calm     91% 0 mm 0 W/m2
01:09 16.8 °C 15.3 °C 1018.5 hPa Calm     91% 0 mm 0 W/m2
01:14 16.7 °C 15.2 °C 1018.5 hPa Calm     91% 0 mm 0 W/m2
01:19 16.7 °C 15.2 °C 1018.5 hPa Calm     91% 0 mm 0 W/m2
01:24 16.6 °C 15.1 °C 1018.5 hPa Calm     91% 0 mm 0 W/m2
01:29 16.5 °C 15 °C 1018.5 hPa Calm     91% 0 mm 0 W/m2
01:34 16.4 °C 14.9 °C 1018.5 hPa Calm     91% 0 mm 0 W/m2
01:39 16.3 °C 14.9 °C 1018.5 hPa Calm     91% 0 mm 0 W/m2
01:44 16.3 °C 14.8 °C 1018.5 hPa Calm     91% 0 mm 0 W/m2
01:49 16.2 °C 14.7 °C 1018.5 hPa Calm     91% 0 mm 0 W/m2
01:54 16.1 °C 14.7 °C 1018.5 hPa Calm     91% 0 mm 0 W/m2
01:59 16.1 °C 14.6 °C 1018.5 hPa Calm     91% 0 mm 0 W/m2
02:04 16 °C 14.6 °C 1018.5 hPa Calm     91.2% 0 mm 0 W/m2
02:09 15.9 °C 14.5 °C 1018.5 hPa Calm     91.3% 0 mm 0 W/m2
02:14 15.9 °C 14.6 °C 1018.5 hPa Calm     92% 0 mm 0 W/m2
02:19 15.8 °C 14.6 °C 1018.5 hPa Calm     92% 0 mm 0 W/m2
02:23 15.8 °C 14.6 °C 1018.5 hPa Calm     92% 0 mm 0 W/m2
02:29 15.8 °C 14.6 °C 1018.5 hPa Calm     92% 0 mm 0 W/m2
02:34 15.8 °C 14.6 °C 1018.5 hPa Calm     92% 0 mm 0 W/m2
02:39 15.8 °C 14.6 °C 1018.5 hPa Calm     92% 0 mm 0 W/m2
02:44 15.9 °C 14.6 °C 1018.5 hPa Calm     92% 0 mm 0 W/m2
02:49 15.9 °C 14.5 °C 1018.5 hPa Calm     91.2% 0 mm 0 W/m2
02:54 15.9 °C 14.5 °C 1018.5 hPa Calm     91% 0 mm 0 W/m2
02:59 16 °C 14.6 °C 1018.5 hPa Calm     91% 0 mm 0 W/m2
03:04 16.1 °C 14.6 °C 1018.5 hPa Calm     90.8% 0 mm 0 W/m2
03:09 16.1 °C 14.4 °C 1018.5 hPa Calm     90% 0 mm 0 W/m2
03:14 16.1 °C 14.4 °C 1018.5 hPa Calm     90% 0 mm 0 W/m2
03:19 16.1 °C 14.5 °C 1018.2 hPa Calm     90% 0 mm 0 W/m2
03:24 16.1 °C 14.5 °C 1018.2 hPa Calm     90% 0 mm 0 W/m2
03:29 16.1 °C 14.5 °C 1018.2 hPa Calm     90% 0 mm 0 W/m2
03:34 16.2 °C 14.6 °C 1018.2 hPa Calm     90.4% 0 mm 0 W/m2
03:39 16.3 °C 14.7 °C 1018.2 hPa Calm     90% 0 mm 0 W/m2
03:44 16.4 °C 14.8 °C 1018.2 hPa SSW 0.3 km/h 3.2 km/h 90% 0 mm 0 W/m2
03:49 16.6 °C 14.9 °C 1018.2 hPa Calm   3.2 km/h 90% 0 mm 0 W/m2
03:54 16.8 °C 15 °C 1017.8 hPa SW 0.5 km/h 8 km/h 89.5% 0 mm 0 W/m2
03:59 16.9 °C 15.1 °C 1017.8 hPa WSW 0.2 km/h 8 km/h 89% 0 mm 0 W/m2
04:00 16.9 °C 15.1 °C 1017.8 hPa WSW 1.6 km/h 8 km/h 89% 0 mm 0 W/m2
04:09 17.3 °C 15.4 °C 1017.8 hPa WSW 2.9 km/h 6.4 km/h 88.9% 0 mm 0 W/m2
04:14 17.4 °C 15.4 °C 1017.8 hPa WSW 0.3 km/h 6.4 km/h 88% 0 mm 0 W/m2
04:19 17.6 °C 15.5 °C 1017.8 hPa WSW 0.3 km/h 6.4 km/h 87.7% 0 mm 0 W/m2
04:24 17.7 °C 15.4 °C 1017.8 hPa WSW 0.2 km/h 6.4 km/h 86.7% 0 mm 0 W/m2
04:29 17.8 °C 15.4 °C 1017.8 hPa WSW 0.2 km/h 6.4 km/h 86% 0 mm 0 W/m2
04:34 17.9 °C 15.6 °C 1017.8 hPa Calm   6.4 km/h 86% 0 mm 0 W/m2
04:39 18 °C 15.4 °C 1017.8 hPa Calm   3.2 km/h 85.1% 0 mm 0 W/m2
04:44 18 °C 15.4 °C 1017.5 hPa South 0.2 km/h 3.2 km/h 85% 0 mm 0 W/m2
04:49 18.1 °C 15.5 °C 1017.5 hPa Calm   3.2 km/h 85% 0 mm 0 W/m2
04:54 18.1 °C 15.5 °C 1017.5 hPa Calm   3.2 km/h 85% 0 mm 0 W/m2
04:59 18 °C 15.4 °C 1017.5 hPa Calm   3.2 km/h 85% 0 mm 0 W/m2
05:03 18 °C 15.4 °C 1017.5 hPa Calm   3.2 km/h 85% 0 mm 0 W/m2
05:09 18 °C 15.4 °C 1017.5 hPa Calm   1.6 km/h 85% 0 mm 0 W/m2
05:14 18 °C 15.4 °C 1017.5 hPa Calm   1.6 km/h 85% 0 mm 0 W/m2
05:19 18 °C 15.5 °C 1017.5 hPa Calm   1.6 km/h 85.4% 0 mm 0 W/m2
05:24 18 °C 15.6 °C 1017.5 hPa Calm   1.6 km/h 86% 0 mm 0 W/m2
05:29 17.9 °C 15.6 °C 1017.5 hPa Calm   1.6 km/h 86% 0 mm 0 W/m2
05:34 17.9 °C 15.6 °C 1017.5 hPa Calm   1.6 km/h 86% 0 mm 0 W/m2
05:39 17.9 °C 15.6 °C 1017.5 hPa SSW 0.2 km/h 4.8 km/h 86% 0 mm 0 W/m2
05:44 17.9 °C 15.6 °C 1017.5 hPa Calm   4.8 km/h 86% 0 mm 0 W/m2
05:49 17.9 °C 15.5 °C 1017.5 hPa Calm   4.8 km/h 86% 0 mm 0 W/m2
05:54 17.9 °C 15.6 °C 1017.5 hPa Calm   4.8 km/h 86.2% 0 mm 0 W/m2
05:59 17.9 °C 15.7 °C 1017.2 hPa Calm   4.8 km/h 87% 0 mm 0 W/m2
06:04 17.9 °C 15.7 °C 1017.2 hPa Calm   4.8 km/h 86.8% 0 mm 0 W/m2
06:09 18 °C 15.6 °C 1017.2 hPa Calm     86% 0 mm 0 W/m2
06:14 18 °C 15.6 °C 1017.2 hPa SW 0.2 km/h 3.2 km/h 86% 0 mm 0 W/m2
06:19 18.1 °C 15.7 °C 1017.2 hPa SW 0.2 km/h 4.8 km/h 86% 0 mm 0 W/m2
06:24 18.1 °C 15.7 °C 1017.2 hPa WSW 0.8 km/h 6.4 km/h 86% 0 mm 0 W/m2
06:29 18.1 °C 15.8 °C 1017.2 hPa SSW 0.5 km/h 6.4 km/h 86% 0 mm 0 W/m2
06:34 18.2 °C 15.8 °C 1017.2 hPa SSW 0.5 km/h 6.4 km/h 86% 0 mm 0 W/m2
06:39 18.2 °C 15.9 °C 1017.2 hPa SSW 0.2 km/h 3.2 km/h 86% 0 mm 7 W/m2
06:44 18.3 °C 15.9 °C 1017.2 hPa SSW 0.3 km/h 4.8 km/h 86% 0 mm 11 W/m2
06:49 18.3 °C 15.9 °C 1017.2 hPa SW 0.3 km/h 8 km/h 86% 0 mm 14 W/m2
06:54 18.3 °C 16 °C 1017.2 hPa SW 0.6 km/h 8 km/h 86% 0 mm 19 W/m2
06:59 18.4 °C 16 °C 1017.2 hPa SW 0.5 km/h 8 km/h 86% 0 mm 26 W/m2
07:04 18.4 °C 16.1 °C 1017.2 hPa SW 1.8 km/h 8 km/h 86% 0 mm 33 W/m2
07:09 18.5 °C 16.2 °C 1017.2 hPa SW 1.1 km/h 8 km/h 86% 0 mm 37 W/m2
07:14 18.6 °C 16.2 °C 1017.2 hPa SW 2.6 km/h 9.7 km/h 86% 0 mm 37 W/m2
07:19 18.7 °C 16.3 °C 1017.2 hPa WSW 1.8 km/h 9.7 km/h 86% 0 mm 39 W/m2
07:24 18.8 °C 16.4 °C 1017.2 hPa West 2.3 km/h 12.9 km/h 86% 0 mm 46 W/m2
07:29 18.9 °C 16.5 °C 1017.2 hPa WSW 0.6 km/h 12.9 km/h 86% 0 mm 56 W/m2
07:34 19 °C 16.6 °C 1017.2 hPa SW 0.2 km/h 12.9 km/h 86% 0 mm 60 W/m2
07:39 19.1 °C 16.7 °C 1017.2 hPa SW 0.8 km/h 9.7 km/h 86% 0 mm 62 W/m2
07:44 19.2 °C 16.7 °C 1017.2 hPa SSW 0.5 km/h 9.7 km/h 85.5% 0 mm 63 W/m2
07:49 19.3 °C 16.8 °C 1017.2 hPa SW 1.4 km/h 9.7 km/h 85.7% 0 mm 63 W/m2
07:54 19.4 °C 16.8 °C 1016.8 hPa SW 2.3 km/h 9.7 km/h 85% 0 mm 70 W/m2
07:59 19.4 °C 16.8 °C 1016.8 hPa SW 0.6 km/h 9.7 km/h 85% 0 mm 79 W/m2
08:00 19.4 °C 16.8 °C 1016.8 hPa SW 2.4 km/h 9.7 km/h 85% 0 mm 79 W/m2
08:09 19.6 °C 16.8 °C 1016.8 hPa SW 1.6 km/h 8 km/h 84% 0 mm 93 W/m2
08:14 19.7 °C 16.9 °C 1016.8 hPa West 1.3 km/h 8 km/h 84% 0 mm 100 W/m2
08:19 19.8 °C 17.1 °C 1016.8 hPa WSW 0.8 km/h 8 km/h 84% 0 mm 104 W/m2
08:24 19.9 °C 17.2 °C 1016.8 hPa WSW 0.3 km/h 8 km/h 84% 0 mm 114 W/m2
08:29 20.1 °C 17.2 °C 1017.2 hPa WSW 1.9 km/h 16.1 km/h 83.6% 0 mm 114 W/m2
08:34 20.2 °C 17.2 °C 1017.2 hPa WSW 2.4 km/h 16.1 km/h 83.1% 0 mm 105 W/m2
08:39 20.2 °C 17.2 °C 1017.2 hPa SW 2.4 km/h 14.5 km/h 82.8% 0 mm 102 W/m2
08:44 20.2 °C 17.3 °C 1017.2 hPa WSW 2.3 km/h 14.5 km/h 83% 0 mm 105 W/m2
08:49 20.3 °C 17.2 °C 1016.8 hPa WSW 2.7 km/h 14.5 km/h 82.3% 0 mm 139 W/m2
08:54 20.3 °C 17.2 °C 1016.8 hPa SW 1.6 km/h 14.5 km/h 82% 0 mm 229 W/m2
08:59 20.4 °C 17.4 °C 1016.8 hPa SW 1.4 km/h 14.5 km/h 82.6% 0 mm 281 W/m2
09:04 20.7 °C 17.5 °C 1016.5 hPa SW 1.1 km/h 14.5 km/h 82.1% 0 mm 316 W/m2
09:09 21 °C 17.6 °C 1016.5 hPa SW 3.7 km/h 17.7 km/h 81% 0 mm 329 W/m2
09:14 21.3 °C 17.7 °C 1016.5 hPa SW 1.4 km/h 17.7 km/h 80% 0 mm 320 W/m2
09:19 21.7 °C 18 °C 1016.5 hPa WSW 1.6 km/h 17.7 km/h 79.8% 0 mm 338 W/m2
09:24 21.9 °C 18.2 °C 1016.5 hPa WSW 1.1 km/h 17.7 km/h 79% 0 mm 348 W/m2
09:29 22.3 °C 18.3 °C 1016.5 hPa SW 1.1 km/h 17.7 km/h 78.2% 0 mm 388 W/m2
09:34 22.6 °C 18.3 °C 1016.5 hPa SW 2.1 km/h 17.7 km/h 76.9% 0 mm 399 W/m2
09:39 22.9 °C 18.3 °C 1016.5 hPa SW 1.4 km/h 11.3 km/h 75.5% 0 mm 411 W/m2
09:44 23.2 °C 18.4 °C 1016.5 hPa WSW 1.9 km/h 14.5 km/h 75% 0 mm 461 W/m2
09:49 23.4 °C 18.8 °C 1016.5 hPa Calm   14.5 km/h 75.1% 0 mm 473 W/m2
09:54 23.8 °C 19.2 °C 1016.5 hPa SW 1.4 km/h 14.5 km/h 75.2% 0 mm 485 W/m2
09:59 24.1 °C 18.9 °C 1016.5 hPa WSW 1.4 km/h 14.5 km/h 72.5% 0 mm 501 W/m2
10:04 24.4 °C 19 °C 1016.5 hPa WSW 1.8 km/h 14.5 km/h 71.8% 0 mm 501 W/m2
10:09 24.7 °C 19.1 °C 1016.5 hPa SW 3.2 km/h 19.3 km/h 71% 0 mm 497 W/m2
10:14 24.8 °C 18.9 °C 1016.5 hPa SW 1.4 km/h 19.3 km/h 69.9% 0 mm 504 W/m2
10:19 24.9 °C 18.9 °C 1016.5 hPa SSW 2.4 km/h 19.3 km/h 68.9% 0 mm 513 W/m2
10:24 25.1 °C 19 °C 1016.5 hPa WSW 2.4 km/h 19.3 km/h 68.9% 0 mm 534 W/m2
10:29 25.2 °C 19.1 °C 1016.5 hPa SW 3.4 km/h 19.3 km/h 68.7% 0 mm 554 W/m2
10:34 25.3 °C 19.2 °C 1016.5 hPa SW 2.1 km/h 19.3 km/h 68.7% 0 mm 543 W/m2
10:39 25.4 °C 19.1 °C 1016.5 hPa SW 2.7 km/h 11.3 km/h 67.8% 0 mm 527 W/m2
10:44 25.4 °C 19 °C 1016.5 hPa SW 1.6 km/h 16.1 km/h 67.7% 0 mm 508 W/m2
10:49 25.4 °C 19.3 °C 1016.5 hPa SW 1 km/h 16.1 km/h 68.9% 0 mm 513 W/m2
10:54 25.6 °C 19.2 °C 1016.5 hPa SW 1.9 km/h 16.1 km/h 67.8% 0 mm 499 W/m2
10:59 25.5 °C 19.1 °C 1016.5 hPa SW 1.9 km/h 16.1 km/h 67.3% 0 mm 536 W/m2
11:04 25.5 °C 19.2 °C 1016.5 hPa SW 1.1 km/h 16.1 km/h 68.3% 0 mm 619 W/m2
11:09 25.6 °C 19.3 °C 1016.1 hPa SW 1.9 km/h 16.1 km/h 68.4% 0 mm 613 W/m2
11:14 25.7 °C 19.4 °C 1016.1 hPa SW 3.7 km/h 16.1 km/h 68.2% 0 mm 608 W/m2
11:19 26 °C 19.5 °C 1016.1 hPa WSW 1 km/h 16.1 km/h 67.2% 0 mm 599 W/m2
11:24 26.3 °C 19.9 °C 1015.8 hPa WSW 2.3 km/h 16.1 km/h 67.6% 0 mm 582 W/m2
11:29 26.6 °C 19.9 °C 1015.8 hPa WSW 2.6 km/h 16.1 km/h 66.9% 0 mm 582 W/m2
11:34 26.5 °C 19.3 °C 1015.8 hPa WSW 4.5 km/h 20.9 km/h 64.6% 0 mm 350 W/m2
11:39 26.3 °C 19.5 °C 1015.5 hPa SW 2.3 km/h 20.9 km/h 66% 0 mm 425 W/m2
11:44 26.4 °C 19.7 °C 1015.8 hPa SW 2.1 km/h 20.9 km/h 66.7% 0 mm 633 W/m2
11:49 26.6 °C 19.8 °C 1015.8 hPa WSW 1.8 km/h 20.9 km/h 66.6% 0 mm 524 W/m2
11:54 26.7 °C 19.4 °C 1015.8 hPa WSW 3.5 km/h 20.9 km/h 64.5% 0 mm 227 W/m2
11:59 26.7 °C 19.6 °C 1015.8 hPa WSW 2.4 km/h 20.9 km/h 65.1% 0 mm 167 W/m2
12:09 26.6 °C 19.7 °C 1015.5 hPa WSW 3.4 km/h 19.3 km/h 65.7% 0 mm 163 W/m2
12:14 26.6 °C 19.5 °C 1015.5 hPa WSW 3.7 km/h 19.3 km/h 65.3% 0 mm 179 W/m2
12:19 26.5 °C 19.4 °C 1015.5 hPa SW 2.9 km/h 19.3 km/h 65.2% 0 mm 183 W/m2
12:24 26.5 °C 19.4 °C 1015.1 hPa SW 1 km/h 19.3 km/h 65.2% 0 mm 174 W/m2
12:29 26.6 °C 19.8 °C 1015.1 hPa WSW 3.2 km/h 22.5 km/h 66.5% 0 mm 220 W/m2
12:34 26.6 °C 19.7 °C 1015.1 hPa SW 2.3 km/h 22.5 km/h 65.8% 0 mm 190 W/m2
12:39 26.7 °C 19.6 °C 1015.1 hPa SW 2.1 km/h 17.7 km/h 65.1% 0 mm 190 W/m2
12:44 26.7 °C 19.6 °C 1014.8 hPa SW 1.8 km/h 17.7 km/h 65.2% 0 mm 174 W/m2
12:49 26.7 °C 19.7 °C 1014.8 hPa WSW 2.1 km/h 17.7 km/h 65.4% 0 mm 171 W/m2
12:54 26.8 °C 19.9 °C 1014.8 hPa WSW 1.6 km/h 17.7 km/h 65.9% 0 mm 202 W/m2
12:59 26.9 °C 19.7 °C 1014.8 hPa SSW 1.8 km/h 17.7 km/h 64.8% 0 mm 202 W/m2
13:04 26.9 °C 19.8 °C 1014.8 hPa Calm   17.7 km/h 65.3% 0 mm 193 W/m2
13:09 26.9 °C 20.1 °C 1014.8 hPa Calm   1.6 km/h 66.2% 0 mm 200 W/m2
13:14 27.1 °C 20.1 °C 1014.8 hPa WSW 1.3 km/h 9.7 km/h 65.8% 0 mm 192 W/m2
13:19 27.2 °C 20.3 °C 1014.8 hPa WSW 0.6 km/h 9.7 km/h 66% 0 mm 169 W/m2
13:24 27.3 °C 20.2 °C 1014.4 hPa SW 1.3 km/h 9.7 km/h 65.3% 0 mm 156 W/m2
13:29 27.4 °C 20.1 °C 1014.8 hPa SW 3.2 km/h 9.7 km/h 64.6% 0 mm 167 W/m2
13:34 27.4 °C 20 °C 1014.4 hPa WSW 0.6 km/h 9.7 km/h 64% 0 mm 323 W/m2
13:39 27.4 °C 20.4 °C 1014.4 hPa WSW 2.3 km/h 9.7 km/h 65.7% 0 mm 186 W/m2
13:44 27.5 °C 20.2 °C 1014.4 hPa SW 4.5 km/h 20.9 km/h 64.4% 0 mm 146 W/m2
13:49 27.6 °C 20.2 °C 1014.4 hPa WSW 1.3 km/h 20.9 km/h 64.3% 0 mm 146 W/m2
13:54 27.6 °C 20.4 °C 1014.1 hPa WSW 0.3 km/h 20.9 km/h 65% 0 mm 135 W/m2
13:59 27.7 °C 20.6 °C 1014.1 hPa SW 2.4 km/h 20.9 km/h 65.3% 0 mm 128 W/m2
14:04 27.7 °C 20.3 °C 1014.1 hPa SW 2.6 km/h 20.9 km/h 64.2% 0 mm 125 W/m2
14:09 27.7 °C 20.2 °C 1014.1 hPa SW 0.6 km/h 9.7 km/h 63.7% 0 mm 167 W/m2
14:14 27.7 °C 20.6 °C 1014.1 hPa WSW 1.9 km/h 11.3 km/h 65.3% 0 mm 227 W/m2
14:19 27.8 °C 20.4 °C 1014.1 hPa WSW 2.1 km/h 11.3 km/h 64.1% 0 mm 316 W/m2
14:24 27.9 °C 20.8 °C 1013.8 hPa WSW 1 km/h 11.3 km/h 65% 0 mm 541 W/m2
14:29 28.1 °C 20.8 °C 1013.8 hPa SW 2.3 km/h 14.5 km/h 64.5% 0 mm 612 W/m2
14:34 28.2 °C 20.6 °C 1014.1 hPa SW 3.5 km/h 14.5 km/h 63.1% 0 mm 612 W/m2
14:39 28.3 °C 20.6 °C 1014.1 hPa SW 1.4 km/h 14.5 km/h 63.1% 0 mm 438 W/m2
14:44 28.3 °C 20.6 °C 1014.1 hPa SW 4.3 km/h 19.3 km/h 63% 0 mm 517 W/m2
14:49 28.3 °C 20.7 °C 1014.1 hPa SW 3.2 km/h 19.3 km/h 63.4% 0 mm 584 W/m2
14:54 28.4 °C 20.7 °C 1014.1 hPa WSW 1.9 km/h 19.3 km/h 63.2% 0 mm 540 W/m2
14:59 28.5 °C 21 °C 1014.1 hPa SW 1.6 km/h 19.3 km/h 64% 0 mm 575 W/m2
15:04 28.6 °C 20.9 °C 1014.1 hPa WSW 2.3 km/h 20.9 km/h 63.2% 0 mm 559 W/m2
15:09 28.7 °C 21 °C 1014.1 hPa WSW 1.4 km/h 20.9 km/h 63.2% 0 mm 541 W/m2
15:14 28.8 °C 21.2 °C 1014.1 hPa WSW 1.1 km/h 20.9 km/h 63.5% 0 mm 520 W/m2
15:19 28.8 °C 21.1 °C 1014.1 hPa WSW 4 km/h 20.9 km/h 62.8% 0 mm 480 W/m2
15:24 28.9 °C 21.1 °C 1014.1 hPa West 1 km/h 20.9 km/h 62.8% 0 mm 483 W/m2
15:29 28.9 °C 21.1 °C 1013.8 hPa WNW 0.6 km/h 20.9 km/h 63% 0 mm 520 W/m2
15:34 28.9 °C 21.1 °C 1013.4 hPa West 1.6 km/h 20.9 km/h 62.9% 0 mm 494 W/m2
15:39 28.9 °C 21.3 °C 1013.4 hPa West 0.3 km/h 17.7 km/h 63.5% 0 mm 503 W/m2
15:44 29 °C 21.3 °C 1013.4 hPa WSW 3.4 km/h 17.7 km/h 63.2% 0 mm 483 W/m2
15:49 29.1 °C 21.1 °C 1013.4 hPa WSW 3.5 km/h 17.7 km/h 62% 0 mm 329 W/m2
15:54 29 °C 21.1 °C 1013.4 hPa WSW 2.7 km/h 17.7 km/h 62.3% 0 mm 311 W/m2
15:59 28.8 °C 21.1 °C 1013.4 hPa SW 0.8 km/h 17.7 km/h 63.1% 0 mm 178 W/m2
16:09 28.4 °C 21 °C 1013.1 hPa SW 2.9 km/h 14.5 km/h 64.3% 0 mm 113 W/m2
16:14 28.2 °C 20.9 °C 1013.1 hPa WSW 3.7 km/h 16.1 km/h 64.3% 0 mm 102 W/m2
16:19 28.2 °C 21.1 °C 1013.4 hPa SW 1.6 km/h 16.1 km/h 65.4% 0 mm 107 W/m2
16:24 28.1 °C 20.8 °C 1013.1 hPa SW 2.7 km/h 16.1 km/h 64.7% 0 mm 123 W/m2
16:29 28.1 °C 20.9 °C 1013.1 hPa WSW 1 km/h 16.1 km/h 65.1% 0 mm 137 W/m2
16:34 28 °C 20.9 °C 1013.4 hPa WSW 3.5 km/h 20.9 km/h 65.2% 0 mm 130 W/m2
16:39 27.9 °C 20.9 °C 1013.4 hPa WNW 0.6 km/h 20.9 km/h 65.4% 0 mm 114 W/m2
16:44 27.8 °C 20.9 °C 1013.4 hPa WSW 1.9 km/h 20.9 km/h 65.8% 0 mm 113 W/m2
16:49 27.8 °C 20.9 °C 1013.4 hPa WSW 0.2 km/h 20.9 km/h 66.4% 0 mm 104 W/m2
16:54 27.7 °C 21.2 °C 1013.1 hPa WSW 0.3 km/h 20.9 km/h 67.3% 0 mm 111 W/m2
16:59 27.7 °C 21.3 °C 1013.1 hPa WSW 1.6 km/h 20.9 km/h 68% 0 mm 100 W/m2
17:04 27.7 °C 21.1 °C 1013.1 hPa WSW 0.6 km/h 20.9 km/h 67.1% 0 mm 76 W/m2
17:09 27.7 °C 21 °C 1013.1 hPa Calm   4.8 km/h 66.8% 0 mm 60 W/m2
17:14 27.7 °C 21 °C 1013.1 hPa WSW 1.4 km/h 9.7 km/h 67% 0 mm 54 W/m2
17:19 27.6 °C 20.9 °C 1013.1 hPa WSW 0.5 km/h 9.7 km/h 67% 0 mm 53 W/m2
17:24 27.6 °C 20.9 °C 1013.1 hPa West 1.3 km/h 9.7 km/h 67% 0 mm 47 W/m2
17:29 27.4 °C 20.9 °C 1013.1 hPa Calm   9.7 km/h 67.7% 0 mm 44 W/m2
17:34 27.4 °C 21 °C 1013.1 hPa West 0.2 km/h 9.7 km/h 68% 0 mm 42 W/m2
17:39 27.3 °C 20.9 °C 1013.4 hPa WSW 0.3 km/h 8 km/h 68.2% 0 mm 40 W/m2
17:44 27.2 °C 20.9 °C 1013.4 hPa West 2.1 km/h 16.1 km/h 68.4% 0 mm 39 W/m2
17:49 27.2 °C 20.8 °C 1013.4 hPa Calm   16.1 km/h 68.3% 0 mm 37 W/m2
17:54 27.1 °C 21.1 °C 1013.4 hPa WSW 0.2 km/h 16.1 km/h 69.7% 0 mm 33 W/m2
17:59 27 °C 21.1 °C 1013.4 hPa West 0.3 km/h 16.1 km/h 70% 0 mm 32 W/m2
18:04 26.9 °C 21 °C 1013.4 hPa Calm   16.1 km/h 70% 0 mm 30 W/m2
18:09 26.9 °C 20.9 °C 1013.4 hPa West 0.2 km/h 1.6 km/h 70% 0 mm 28 W/m2
18:14 26.8 °C 20.8 °C 1013.4 hPa WSW 0.2 km/h 4.8 km/h 70% 0 mm 25 W/m2
18:19 26.7 °C 20.9 °C 1013.4 hPa WSW 0.8 km/h 8 km/h 70.7% 0 mm 23 W/m2
18:24 26.6 °C 20.9 °C 1013.4 hPa WSW 0.3 km/h 8 km/h 71% 0 mm 21 W/m2
18:29 26.5 °C 20.8 °C 1013.4 hPa West 0.3 km/h 8 km/h 71% 0 mm 19 W/m2
18:34 26.4 °C 20.9 °C 1013.4 hPa Calm   8 km/h 71.8% 0 mm 18 W/m2
18:39 26.3 °C 20.9 °C 1013.4 hPa Calm     72% 0 mm 16 W/m2
18:44 26.2 °C 20.8 °C 1013.4 hPa West 0.2 km/h 4.8 km/h 72% 0 mm 12 W/m2
18:49 26.1 °C 20.7 °C 1013.4 hPa West 0.2 km/h 4.8 km/h 72% 0 mm 9 W/m2
18:54 26 °C 20.7 °C 1013.8 hPa Calm   4.8 km/h 72.4% 0 mm 5 W/m2
18:59 25.9 °C 20.7 °C 1013.8 hPa Calm   4.8 km/h 73% 0 mm 0 W/m2
19:04 25.8 °C 20.6 °C 1013.8 hPa Calm   4.8 km/h 73% 0 mm 0 W/m2
19:09 25.7 °C 20.5 °C 1013.8 hPa Calm     73% 0 mm 0 W/m2
19:14 25.6 °C 20.5 °C 1013.8 hPa Calm   4.8 km/h 73.5% 0 mm 0 W/m2
19:19 25.5 °C 20.5 °C 1013.4 hPa Calm   4.8 km/h 74% 0 mm 0 W/m2
19:24 25.4 °C 20.4 °C 1013.8 hPa Calm   4.8 km/h 74% 0 mm 0 W/m2
19:29 25.3 °C 20.5 °C 1013.8 hPa Calm   4.8 km/h 74.9% 0 mm 0 W/m2
19:34 25.2 °C 20.4 °C 1013.8 hPa Calm   4.8 km/h 75% 0 mm 0 W/m2
19:39 25.1 °C 20.3 °C 1013.8 hPa Calm     75% 0 mm 0 W/m2
19:44 25 °C 20.4 °C 1013.8 hPa Calm     76% 0 mm 0 W/m2
19:49 24.9 °C 20.4 °C 1013.8 hPa Calm   1.6 km/h 76% 0 mm 0 W/m2
19:54 24.8 °C 20.3 °C 1013.8 hPa Calm   1.6 km/h 76% 0 mm 0 W/m2
19:59 24.8 °C 20.3 °C 1013.8 hPa Calm   1.6 km/h 76.4% 0 mm 0 W/m2
20:09 24.6 °C 20.3 °C 1013.8 hPa West 0.3 km/h 6.4 km/h 77% 0 mm 0 W/m2
20:14 24.6 °C 20.2 °C 1014.1 hPa Calm   6.4 km/h 77% 0 mm 0 W/m2
20:19 24.4 °C 20.2 °C 1014.1 hPa Calm   6.4 km/h 77% 0 mm 0 W/m2
20:24 24.4 °C 20.2 °C 1014.1 hPa Calm   6.4 km/h 77.3% 0 mm 0 W/m2
20:29 24.3 °C 20.3 °C 1014.1 hPa Calm   6.4 km/h 78% 0 mm 0 W/m2
20:34 24.3 °C 20.2 °C 1014.4 hPa Calm   6.4 km/h 78% 0 mm 0 W/m2
20:39 24.2 °C 20.1 °C 1014.4 hPa Calm   1.6 km/h 78% 0 mm 0 W/m2
20:44 24.2 °C 20.2 °C 1014.4 hPa SW 0.2 km/h 6.4 km/h 78.5% 0 mm 0 W/m2
20:49 24.1 °C 20.2 °C 1014.4 hPa Calm   6.4 km/h 79% 0 mm 0 W/m2
20:54 24 °C 20.1 °C 1014.4 hPa Calm   6.4 km/h 78.8% 0 mm 0 W/m2
20:59 24 °C 20.1 °C 1014.4 hPa WSW 0.5 km/h 6.4 km/h 79% 0 mm 0 W/m2
21:04 23.9 °C 20.1 °C 1014.4 hPa WSW 0.2 km/h 6.4 km/h 79% 0 mm 0 W/m2
21:09 23.9 °C 20.3 °C 1014.4 hPa Calm   3.2 km/h 79.9% 0 mm 0 W/m2
21:14 23.9 °C 20.3 °C 1014.4 hPa Calm   3.2 km/h 80% 0 mm 0 W/m2
21:19 23.9 °C 20.3 °C 1014.4 hPa Calm   3.2 km/h 80% 0 mm 0 W/m2
21:24 23.9 °C 20.2 °C 1014.4 hPa Calm   3.2 km/h 79.5% 0 mm 0 W/m2
21:29 23.9 °C 20.1 °C 1014.4 hPa Calm   3.2 km/h 79% 0 mm 0 W/m2
21:34 23.9 °C 20.1 °C 1014.4 hPa Calm   3.2 km/h 79% 0 mm 0 W/m2
21:39 23.9 °C 20 °C 1014.4 hPa WSW 0.3 km/h 3.2 km/h 79% 0 mm 0 W/m2
21:44 23.8 °C 20 °C 1014.4 hPa WSW 0.6 km/h 4.8 km/h 79% 0 mm 0 W/m2
21:49 23.8 °C 20.2 °C 1014.4 hPa WSW 0.8 km/h 4.8 km/h 80% 0 mm 0 W/m2
21:54 23.8 °C 20.1 °C 1014.4 hPa WSW 0.2 km/h 4.8 km/h 80% 0 mm 0 W/m2
21:59 23.7 °C 20.1 °C 1014.4 hPa WSW 0.8 km/h 8 km/h 80% 0 mm 0 W/m2
22:04 23.7 °C 20 °C 1014.4 hPa Calm   8 km/h 80% 0 mm 0 W/m2
22:09 23.6 °C 19.9 °C 1014.4 hPa WSW 0.3 km/h 6.4 km/h 80% 0 mm 0 W/m2
22:14 23.5 °C 20 °C 1014.4 hPa Calm   6.4 km/h 80.6% 0 mm 0 W/m2
22:19 23.4 °C 20 °C 1014.1 hPa WSW 0.3 km/h 6.4 km/h 81% 0 mm 0 W/m2
22:24 23.4 °C 19.9 °C 1014.1 hPa Calm   6.4 km/h 81% 0 mm 0 W/m2
22:29 23.4 °C 19.9 °C 1014.1 hPa WSW 0.8 km/h 9.7 km/h 81% 0 mm 0 W/m2
22:34 23.3 °C 19.9 °C 1014.1 hPa Calm   9.7 km/h 81% 0 mm 0 W/m2
22:39 23.3 °C 19.9 °C 1014.1 hPa WSW 0.3 km/h 8 km/h 81% 0 mm 0 W/m2
22:44 23.3 °C 19.9 °C 1014.1 hPa WSW 0.2 km/h 8 km/h 81% 0 mm 0 W/m2
22:49 23.4 °C 19.9 °C 1014.1 hPa Calm   8 km/h 81% 0 mm 0 W/m2
22:54 23.4 °C 19.9 °C 1014.1 hPa SW 0.5 km/h 11.3 km/h 81% 0 mm 0 W/m2
22:59 23.4 °C 19.9 °C 1014.1 hPa WSW 0.2 km/h 11.3 km/h 81% 0 mm 0 W/m2
23:04 23.4 °C 19.9 °C 1014.1 hPa Calm   11.3 km/h 81% 0 mm 0 W/m2
23:09 23.4 °C 19.9 °C 1014.1 hPa WSW 0.2 km/h 4.8 km/h 81% 0 mm 0 W/m2
23:14 23.4 °C 19.9 °C 1014.1 hPa Calm   4.8 km/h 81% 0 mm 0 W/m2
23:19 23.4 °C 19.9 °C 1014.1 hPa Calm   4.8 km/h 80.8% 0 mm 0 W/m2
23:24 23.4 °C 19.9 °C 1014.1 hPa Calm   4.8 km/h 81% 0 mm 0 W/m2
23:29 23.3 °C 19.9 °C 1014.1 hPa Calm   4.8 km/h 80.8% 0 mm 0 W/m2
23:34 23.3 °C 19.9 °C 1014.1 hPa Calm   4.8 km/h 81% 0 mm 0 W/m2
Hartford County Weather
Compliments of Weather Underground - 2 mb